sensor_id;sensor_type;location;lat;lon;timestamp;P1;durP1;ratioP1;P2;durP2;ratioP2
13485;SDS011;6815;59.336;17.998;2023-03-15T00:00:51;1.67;;;0.60;;
13485;SDS011;6815;59.336;17.998;2023-03-15T00:03:19;0.83;;;0.70;;
13485;SDS011;6815;59.336;17.998;2023-03-15T00:05:46;1.70;;;1.00;;
13485;SDS011;6815;59.336;17.998;2023-03-15T00:08:13;1.10;;;0.80;;
13485;SDS011;6815;59.336;17.998;2023-03-15T00:10:45;0.70;;;0.60;;
13485;SDS011;6815;59.336;17.998;2023-03-15T00:13:12;0.60;;;0.60;;
13485;SDS011;6815;59.336;17.998;2023-03-15T00:15:47;0.93;;;0.73;;
13485;SDS011;6815;59.336;17.998;2023-03-15T00:18:14;0.63;;;0.60;;
13485;SDS011;6815;59.336;17.998;2023-03-15T00:20:40;1.43;;;0.70;;
13485;SDS011;6815;59.336;17.998;2023-03-15T00:23:06;0.77;;;0.70;;
13485;SDS011;6815;59.336;17.998;2023-03-15T00:25:32;0.93;;;0.70;;
13485;SDS011;6815;59.336;17.998;2023-03-15T00:27:58;0.63;;;0.63;;
13485;SDS011;6815;59.336;17.998;2023-03-15T00:30:23;2.20;;;0.90;;
13485;SDS011;6815;59.336;17.998;2023-03-15T00:32:54;0.63;;;0.60;;
13485;SDS011;6815;59.336;17.998;2023-03-15T00:35:20;1.00;;;0.83;;
13485;SDS011;6815;59.336;17.998;2023-03-15T00:37:48;0.60;;;0.60;;
13485;SDS011;6815;59.336;17.998;2023-03-15T00:40:14;0.60;;;0.60;;
13485;SDS011;6815;59.336;17.998;2023-03-15T00:42:39;0.60;;;0.60;;
13485;SDS011;6815;59.336;17.998;2023-03-15T00:45:05;0.50;;;0.50;;
13485;SDS011;6815;59.336;17.998;2023-03-15T00:47:32;0.80;;;0.73;;
13485;SDS011;6815;59.336;17.998;2023-03-15T00:49:57;0.70;;;0.60;;
13485;SDS011;6815;59.336;17.998;2023-03-15T00:52:23;1.07;;;0.53;;
13485;SDS011;6815;59.336;17.998;2023-03-15T00:54:53;1.07;;;0.87;;
13485;SDS011;6815;59.336;17.998;2023-03-15T00:57:20;1.67;;;0.70;;
13485;SDS011;6815;59.336;17.998;2023-03-15T00:59:46;0.70;;;0.47;;
13485;SDS011;6815;59.336;17.998;2023-03-15T01:02:12;1.30;;;0.70;;
13485;SDS011;6815;59.336;17.998;2023-03-15T01:04:37;1.77;;;0.60;;
13485;SDS011;6815;59.336;17.998;2023-03-15T01:07:03;1.77;;;0.60;;
13485;SDS011;6815;59.336;17.998;2023-03-15T01:09:29;0.77;;;0.67;;
13485;SDS011;6815;59.336;17.998;2023-03-15T01:11:55;1.37;;;0.60;;
13485;SDS011;6815;59.336;17.998;2023-03-15T01:14:24;1.77;;;0.80;;
13485;SDS011;6815;59.336;17.998;2023-03-15T01:16:49;1.87;;;0.50;;
13485;SDS011;6815;59.336;17.998;2023-03-15T01:19:15;0.77;;;0.67;;
13485;SDS011;6815;59.336;17.998;2023-03-15T01:21:41;1.07;;;0.50;;
13485;SDS011;6815;59.336;17.998;2023-03-15T01:24:10;1.03;;;0.60;;
13485;SDS011;6815;59.336;17.998;2023-03-15T01:26:37;2.50;;;0.60;;
13485;SDS011;6815;59.336;17.998;2023-03-15T01:29:03;3.33;;;0.80;;
13485;SDS011;6815;59.336;17.998;2023-03-15T01:31:29;0.70;;;0.60;;
13485;SDS011;6815;59.336;17.998;2023-03-15T01:33:55;1.03;;;0.60;;
13485;SDS011;6815;59.336;17.998;2023-03-15T01:36:22;1.70;;;0.50;;
13485;SDS011;6815;59.336;17.998;2023-03-15T01:38:48;2.43;;;0.70;;
13485;SDS011;6815;59.336;17.998;2023-03-15T01:41:14;1.17;;;0.60;;
13485;SDS011;6815;59.336;17.998;2023-03-15T01:43:42;0.60;;;0.57;;
13485;SDS011;6815;59.336;17.998;2023-03-15T01:49:05;0.50;;;0.50;;
13485;SDS011;6815;59.336;17.998;2023-03-15T02:00:12;1.47;;;0.50;;
13485;SDS011;6815;59.336;17.998;2023-03-15T02:02:42;1.03;;;0.63;;
13485;SDS011;6815;59.336;17.998;2023-03-15T02:05:12;0.50;;;0.50;;
13485;SDS011;6815;59.336;17.998;2023-03-15T02:07:43;0.73;;;0.60;;
13485;SDS011;6815;59.336;17.998;2023-03-15T02:10:26;0.93;;;0.60;;
13485;SDS011;6815;59.336;17.998;2023-03-15T02:13:00;0.90;;;0.50;;
13485;SDS011;6815;59.336;17.998;2023-03-15T02:15:26;0.67;;;0.40;;
13485;SDS011;6815;59.336;17.998;2023-03-15T02:17:52;0.73;;;0.57;;
13485;SDS011;6815;59.336;17.998;2023-03-15T02:20:22;0.50;;;0.50;;
13485;SDS011;6815;59.336;17.998;2023-03-15T02:23:01;1.43;;;0.57;;
13485;SDS011;6815;59.336;17.998;2023-03-15T02:28:01;2.43;;;0.50;;
13485;SDS011;6815;59.336;17.998;2023-03-15T02:30:31;1.30;;;0.60;;
13485;SDS011;6815;59.336;17.998;2023-03-15T02:32:57;0.60;;;0.50;;
13485;SDS011;6815;59.336;17.998;2023-03-15T02:35:29;0.50;;;0.50;;
13485;SDS011;6815;59.336;17.998;2023-03-15T02:37:57;0.80;;;0.50;;
13485;SDS011;6815;59.336;17.998;2023-03-15T02:40:26;0.77;;;0.50;;
13485;SDS011;6815;59.336;17.998;2023-03-15T02:42:55;1.37;;;0.60;;
13485;SDS011;6815;59.336;17.998;2023-03-15T02:45:24;1.27;;;0.60;;
13485;SDS011;6815;59.336;17.998;2023-03-15T02:47:53;1.27;;;0.50;;
13485;SDS011;6815;59.336;17.998;2023-03-15T02:50:19;0.57;;;0.50;;
13485;SDS011;6815;59.336;17.998;2023-03-15T02:52:44;1.43;;;0.70;;
13485;SDS011;6815;59.336;17.998;2023-03-15T02:55:10;2.20;;;0.50;;
13485;SDS011;6815;59.336;17.998;2023-03-15T02:57:35;2.93;;;0.70;;
13485;SDS011;6815;59.336;17.998;2023-03-15T03:00:01;0.50;;;0.50;;
13485;SDS011;6815;59.336;17.998;2023-03-15T03:02:38;0.87;;;0.57;;
13485;SDS011;6815;59.336;17.998;2023-03-15T03:05:04;1.13;;;0.60;;
13485;SDS011;6815;59.336;17.998;2023-03-15T03:07:30;1.33;;;0.60;;
13485;SDS011;6815;59.336;17.998;2023-03-15T03:09:55;0.50;;;0.40;;
13485;SDS011;6815;59.336;17.998;2023-03-15T03:12:21;0.97;;;0.50;;
13485;SDS011;6815;59.336;17.998;2023-03-15T03:14:47;0.97;;;0.67;;
13485;SDS011;6815;59.336;17.998;2023-03-15T03:17:13;2.47;;;0.50;;
13485;SDS011;6815;59.336;17.998;2023-03-15T03:19:38;0.80;;;0.67;;
13485;SDS011;6815;59.336;17.998;2023-03-15T03:22:04;1.73;;;0.60;;
13485;SDS011;6815;59.336;17.998;2023-03-15T03:24:29;1.57;;;0.77;;
13485;SDS011;6815;59.336;17.998;2023-03-15T03:26:55;0.90;;;0.37;;
13485;SDS011;6815;59.336;17.998;2023-03-15T03:29:24;0.60;;;0.50;;
13485;SDS011;6815;59.336;17.998;2023-03-15T03:31:49;1.90;;;0.50;;
13485;SDS011;6815;59.336;17.998;2023-03-15T03:34:15;0.83;;;0.60;;
13485;SDS011;6815;59.336;17.998;2023-03-15T03:36:41;1.23;;;0.50;;
13485;SDS011;6815;59.336;17.998;2023-03-15T03:39:07;1.03;;;0.60;;
13485;SDS011;6815;59.336;17.998;2023-03-15T03:41:33;1.10;;;0.53;;
13485;SDS011;6815;59.336;17.998;2023-03-15T03:43:58;1.90;;;0.50;;
13485;SDS011;6815;59.336;17.998;2023-03-15T03:46:24;1.20;;;0.77;;
13485;SDS011;6815;59.336;17.998;2023-03-15T03:48:49;0.80;;;0.50;;
13485;SDS011;6815;59.336;17.998;2023-03-15T03:51:15;2.60;;;0.60;;
13485;SDS011;6815;59.336;17.998;2023-03-15T03:53:40;0.40;;;0.40;;
13485;SDS011;6815;59.336;17.998;2023-03-15T03:56:06;0.47;;;0.47;;
13485;SDS011;6815;59.336;17.998;2023-03-15T03:58:32;0.93;;;0.60;;
13485;SDS011;6815;59.336;17.998;2023-03-15T04:00:58;1.00;;;0.70;;
13485;SDS011;6815;59.336;17.998;2023-03-15T04:03:23;0.40;;;0.40;;
13485;SDS011;6815;59.336;17.998;2023-03-15T04:05:52;3.03;;;0.47;;
13485;SDS011;6815;59.336;17.998;2023-03-15T04:08:21;1.20;;;0.50;;
13485;SDS011;6815;59.336;17.998;2023-03-15T04:10:54;1.80;;;0.70;;
13485;SDS011;6815;59.336;17.998;2023-03-15T04:13:21;0.67;;;0.47;;
13485;SDS011;6815;59.336;17.998;2023-03-15T04:15:48;0.40;;;0.40;;
13485;SDS011;6815;59.336;17.998;2023-03-15T04:18:14;0.40;;;0.40;;
13485;SDS011;6815;59.336;17.998;2023-03-15T04:20:40;1.40;;;0.60;;
13485;SDS011;6815;59.336;17.998;2023-03-15T04:23:10;1.30;;;0.70;;
13485;SDS011;6815;59.336;17.998;2023-03-15T04:25:39;0.87;;;0.50;;
13485;SDS011;6815;59.336;17.998;2023-03-15T04:28:06;0.40;;;0.40;;
13485;SDS011;6815;59.336;17.998;2023-03-15T04:30:34;0.67;;;0.60;;
13485;SDS011;6815;59.336;17.998;2023-03-15T04:33:00;1.33;;;0.60;;
13485;SDS011;6815;59.336;17.998;2023-03-15T04:35:32;0.87;;;0.50;;
13485;SDS011;6815;59.336;17.998;2023-03-15T04:38:00;1.20;;;0.57;;
13485;SDS011;6815;59.336;17.998;2023-03-15T04:40:26;0.80;;;0.50;;
13485;SDS011;6815;59.336;17.998;2023-03-15T04:42:52;0.60;;;0.60;;
13485;SDS011;6815;59.336;17.998;2023-03-15T04:45:21;1.50;;;0.80;;
13485;SDS011;6815;59.336;17.998;2023-03-15T04:47:48;1.47;;;0.70;;
13485;SDS011;6815;59.336;17.998;2023-03-15T04:50:14;2.13;;;0.77;;
13485;SDS011;6815;59.336;17.998;2023-03-15T04:52:40;0.97;;;0.60;;
13485;SDS011;6815;59.336;17.998;2023-03-15T04:55:06;1.47;;;0.80;;
13485;SDS011;6815;59.336;17.998;2023-03-15T04:57:31;0.73;;;0.60;;
13485;SDS011;6815;59.336;17.998;2023-03-15T04:59:57;1.23;;;0.70;;
13485;SDS011;6815;59.336;17.998;2023-03-15T05:02:24;2.10;;;0.60;;
13485;SDS011;6815;59.336;17.998;2023-03-15T05:04:49;2.60;;;1.20;;
13485;SDS011;6815;59.336;17.998;2023-03-15T05:07:15;1.60;;;0.67;;
13485;SDS011;6815;59.336;17.998;2023-03-15T05:09:40;1.30;;;0.63;;
13485;SDS011;6815;59.336;17.998;2023-03-15T05:12:06;0.53;;;0.53;;
13485;SDS011;6815;59.336;17.998;2023-03-15T05:14:33;0.90;;;0.50;;
13485;SDS011;6815;59.336;17.998;2023-03-15T05:16:58;1.30;;;0.70;;
13485;SDS011;6815;59.336;17.998;2023-03-15T05:19:26;0.83;;;0.60;;
13485;SDS011;6815;59.336;17.998;2023-03-15T05:21:51;1.47;;;0.70;;
13485;SDS011;6815;59.336;17.998;2023-03-15T05:24:18;0.60;;;0.53;;
13485;SDS011;6815;59.336;17.998;2023-03-15T05:26:44;1.00;;;0.60;;
13485;SDS011;6815;59.336;17.998;2023-03-15T05:29:10;1.07;;;0.70;;
13485;SDS011;6815;59.336;17.998;2023-03-15T05:31:37;1.00;;;0.70;;
13485;SDS011;6815;59.336;17.998;2023-03-15T05:34:03;1.73;;;0.70;;
13485;SDS011;6815;59.336;17.998;2023-03-15T05:36:30;2.03;;;0.80;;
13485;SDS011;6815;59.336;17.998;2023-03-15T05:38:55;1.53;;;0.77;;
13485;SDS011;6815;59.336;17.998;2023-03-15T05:41:21;1.60;;;0.70;;
13485;SDS011;6815;59.336;17.998;2023-03-15T05:43:48;0.77;;;0.60;;
13485;SDS011;6815;59.336;17.998;2023-03-15T05:46:14;1.77;;;0.70;;
13485;SDS011;6815;59.336;17.998;2023-03-15T05:48:40;1.40;;;0.60;;
13485;SDS011;6815;59.336;17.998;2023-03-15T05:51:05;1.73;;;0.70;;
13485;SDS011;6815;59.336;17.998;2023-03-15T05:53:32;1.23;;;0.60;;
13485;SDS011;6815;59.336;17.998;2023-03-15T05:55:57;1.47;;;0.67;;
13485;SDS011;6815;59.336;17.998;2023-03-15T05:58:23;1.47;;;0.53;;
13485;SDS011;6815;59.336;17.998;2023-03-15T06:00:48;1.30;;;0.77;;
13485;SDS011;6815;59.336;17.998;2023-03-15T06:03:14;1.00;;;0.63;;
13485;SDS011;6815;59.336;17.998;2023-03-15T06:05:41;2.07;;;0.70;;
13485;SDS011;6815;59.336;17.998;2023-03-15T06:08:07;1.47;;;0.70;;
13485;SDS011;6815;59.336;17.998;2023-03-15T06:10:33;2.57;;;0.90;;
13485;SDS011;6815;59.336;17.998;2023-03-15T06:12:58;0.80;;;0.70;;
13485;SDS011;6815;59.336;17.998;2023-03-15T06:15:24;1.87;;;1.03;;
13485;SDS011;6815;59.336;17.998;2023-03-15T06:17:50;1.67;;;0.87;;
13485;SDS011;6815;59.336;17.998;2023-03-15T06:20:16;2.40;;;1.10;;
13485;SDS011;6815;59.336;17.998;2023-03-15T06:22:42;1.63;;;1.03;;
13485;SDS011;6815;59.336;17.998;2023-03-15T06:25:08;1.33;;;0.70;;
13485;SDS011;6815;59.336;17.998;2023-03-15T06:27:34;1.87;;;1.30;;
13485;SDS011;6815;59.336;17.998;2023-03-15T06:30:00;0.80;;;0.80;;
13485;SDS011;6815;59.336;17.998;2023-03-15T06:32:26;2.53;;;0.93;;
13485;SDS011;6815;59.336;17.998;2023-03-15T06:34:51;3.23;;;0.80;;
13485;SDS011;6815;59.336;17.998;2023-03-15T06:37:17;2.03;;;1.07;;
13485;SDS011;6815;59.336;17.998;2023-03-15T06:39:42;1.23;;;0.90;;
13485;SDS011;6815;59.336;17.998;2023-03-15T06:42:09;1.17;;;0.87;;
13485;SDS011;6815;59.336;17.998;2023-03-15T06:44:37;2.27;;;0.83;;
13485;SDS011;6815;59.336;17.998;2023-03-15T06:47:03;1.57;;;0.60;;
13485;SDS011;6815;59.336;17.998;2023-03-15T06:49:28;1.23;;;0.90;;
13485;SDS011;6815;59.336;17.998;2023-03-15T06:51:56;5.53;;;1.03;;
13485;SDS011;6815;59.336;17.998;2023-03-15T06:54:22;1.77;;;0.83;;
13485;SDS011;6815;59.336;17.998;2023-03-15T06:56:48;3.50;;;1.10;;
13485;SDS011;6815;59.336;17.998;2023-03-15T06:59:13;1.53;;;0.80;;
13485;SDS011;6815;59.336;17.998;2023-03-15T07:01:40;2.97;;;1.10;;
13485;SDS011;6815;59.336;17.998;2023-03-15T07:04:06;1.33;;;0.80;;
13485;SDS011;6815;59.336;17.998;2023-03-15T07:06:32;1.83;;;0.80;;
13485;SDS011;6815;59.336;17.998;2023-03-15T07:08:58;1.40;;;0.83;;
13485;SDS011;6815;59.336;17.998;2023-03-15T07:11:23;1.30;;;0.80;;
13485;SDS011;6815;59.336;17.998;2023-03-15T07:13:49;2.83;;;1.00;;
13485;SDS011;6815;59.336;17.998;2023-03-15T07:16:14;2.10;;;0.80;;
13485;SDS011;6815;59.336;17.998;2023-03-15T07:18:40;1.67;;;0.83;;
13485;SDS011;6815;59.336;17.998;2023-03-15T07:21:06;2.53;;;0.80;;
13485;SDS011;6815;59.336;17.998;2023-03-15T07:23:32;2.20;;;0.90;;
13485;SDS011;6815;59.336;17.998;2023-03-15T07:25:58;2.30;;;0.70;;
13485;SDS011;6815;59.336;17.998;2023-03-15T07:28:23;1.63;;;0.90;;
13485;SDS011;6815;59.336;17.998;2023-03-15T07:30:58;0.90;;;0.60;;
13485;SDS011;6815;59.336;17.998;2023-03-15T07:33:26;2.83;;;0.80;;
13485;SDS011;6815;59.336;17.998;2023-03-15T07:35:53;1.67;;;1.00;;
13485;SDS011;6815;59.336;17.998;2023-03-15T07:38:20;1.33;;;0.80;;
13485;SDS011;6815;59.336;17.998;2023-03-15T07:40:46;3.33;;;0.80;;
13485;SDS011;6815;59.336;17.998;2023-03-15T07:43:11;2.00;;;0.90;;
13485;SDS011;6815;59.336;17.998;2023-03-15T07:45:37;1.07;;;0.70;;
13485;SDS011;6815;59.336;17.998;2023-03-15T07:48:02;3.93;;;1.00;;
13485;SDS011;6815;59.336;17.998;2023-03-15T07:50:28;3.07;;;0.87;;
13485;SDS011;6815;59.336;17.998;2023-03-15T07:52:54;0.97;;;0.87;;
13485;SDS011;6815;59.336;17.998;2023-03-15T07:55:19;1.47;;;0.70;;
13485;SDS011;6815;59.336;17.998;2023-03-15T07:57:44;1.80;;;1.00;;
13485;SDS011;6815;59.336;17.998;2023-03-15T08:00:10;1.43;;;0.80;;
13485;SDS011;6815;59.336;17.998;2023-03-15T08:02:37;2.37;;;0.80;;
13485;SDS011;6815;59.336;17.998;2023-03-15T08:05:04;1.50;;;0.70;;
13485;SDS011;6815;59.336;17.998;2023-03-15T08:07:30;3.30;;;0.90;;
13485;SDS011;6815;59.336;17.998;2023-03-15T08:09:56;4.77;;;1.17;;
13485;SDS011;6815;59.336;17.998;2023-03-15T08:12:25;4.07;;;1.10;;
13485;SDS011;6815;59.336;17.998;2023-03-15T08:14:51;1.43;;;1.27;;
13485;SDS011;6815;59.336;17.998;2023-03-15T08:17:17;2.00;;;0.70;;
13485;SDS011;6815;59.336;17.998;2023-03-15T08:19:43;1.73;;;0.60;;
13485;SDS011;6815;59.336;17.998;2023-03-15T08:22:08;1.67;;;0.80;;
13485;SDS011;6815;59.336;17.998;2023-03-15T08:24:34;3.50;;;0.80;;
13485;SDS011;6815;59.336;17.998;2023-03-15T08:27:00;2.70;;;0.83;;
13485;SDS011;6815;59.336;17.998;2023-03-15T08:29:27;2.60;;;1.00;;
13485;SDS011;6815;59.336;17.998;2023-03-15T08:31:52;2.60;;;1.07;;
13485;SDS011;6815;59.336;17.998;2023-03-15T08:34:18;3.57;;;1.23;;
13485;SDS011;6815;59.336;17.998;2023-03-15T08:36:47;2.67;;;1.60;;
13485;SDS011;6815;59.336;17.998;2023-03-15T08:39:13;3.70;;;1.97;;
13485;SDS011;6815;59.336;17.998;2023-03-15T08:41:39;3.70;;;1.57;;
13485;SDS011;6815;59.336;17.998;2023-03-15T08:44:05;5.07;;;1.67;;
13485;SDS011;6815;59.336;17.998;2023-03-15T08:46:31;2.70;;;1.50;;
13485;SDS011;6815;59.336;17.998;2023-03-15T08:48:57;2.77;;;1.80;;
13485;SDS011;6815;59.336;17.998;2023-03-15T08:51:23;2.97;;;1.77;;
13485;SDS011;6815;59.336;17.998;2023-03-15T08:53:50;3.13;;;1.40;;
13485;SDS011;6815;59.336;17.998;2023-03-15T08:56:17;3.33;;;1.60;;
13485;SDS011;6815;59.336;17.998;2023-03-15T08:58:44;2.30;;;1.30;;
13485;SDS011;6815;59.336;17.998;2023-03-15T09:01:10;1.93;;;1.37;;
13485;SDS011;6815;59.336;17.998;2023-03-15T09:03:36;1.67;;;1.20;;
13485;SDS011;6815;59.336;17.998;2023-03-15T09:06:02;3.07;;;1.20;;
13485;SDS011;6815;59.336;17.998;2023-03-15T09:08:27;3.63;;;1.30;;
13485;SDS011;6815;59.336;17.998;2023-03-15T09:10:53;4.67;;;1.70;;
13485;SDS011;6815;59.336;17.998;2023-03-15T09:13:19;3.53;;;1.67;;
13485;SDS011;6815;59.336;17.998;2023-03-15T09:15:45;2.23;;;1.53;;
13485;SDS011;6815;59.336;17.998;2023-03-15T09:18:13;4.50;;;1.73;;
13485;SDS011;6815;59.336;17.998;2023-03-15T09:20:38;2.40;;;1.40;;
13485;SDS011;6815;59.336;17.998;2023-03-15T09:23:05;1.73;;;1.23;;
13485;SDS011;6815;59.336;17.998;2023-03-15T09:25:31;2.70;;;1.20;;
13485;SDS011;6815;59.336;17.998;2023-03-15T09:27:56;1.87;;;1.10;;
13485;SDS011;6815;59.336;17.998;2023-03-15T09:30:22;1.80;;;1.10;;
13485;SDS011;6815;59.336;17.998;2023-03-15T09:32:48;2.10;;;1.00;;
13485;SDS011;6815;59.336;17.998;2023-03-15T09:35:17;1.93;;;0.80;;
13485;SDS011;6815;59.336;17.998;2023-03-15T09:37:44;1.73;;;0.80;;
13485;SDS011;6815;59.336;17.998;2023-03-15T09:40:15;1.87;;;0.90;;
13485;SDS011;6815;59.336;17.998;2023-03-15T09:42:58;2.90;;;0.80;;
13485;SDS011;6815;59.336;17.998;2023-03-15T09:51:03;0.80;;;0.70;;
13485;SDS011;6815;59.336;17.998;2023-03-15T09:56:23;1.23;;;0.70;;
13485;SDS011;6815;59.336;17.998;2023-03-15T09:58:49;1.70;;;0.83;;
13485;SDS011;6815;59.336;17.998;2023-03-15T10:01:18;1.03;;;0.70;;
13485;SDS011;6815;59.336;17.998;2023-03-15T10:03:50;0.90;;;0.70;;
13485;SDS011;6815;59.336;17.998;2023-03-15T10:06:22;1.03;;;0.63;;
13485;SDS011;6815;59.336;17.998;2023-03-15T10:08:57;1.97;;;0.80;;
13485;SDS011;6815;59.336;17.998;2023-03-15T10:11:34;1.80;;;0.90;;
13485;SDS011;6815;59.336;17.998;2023-03-15T10:17:23;1.93;;;0.80;;
13485;SDS011;6815;59.336;17.998;2023-03-15T10:19:56;3.30;;;0.70;;
13485;SDS011;6815;59.336;17.998;2023-03-15T10:22:29;1.83;;;0.80;;
13485;SDS011;6815;59.336;17.998;2023-03-15T10:27:48;3.57;;;0.80;;
13485;SDS011;6815;59.336;17.998;2023-03-15T10:30:19;0.60;;;0.50;;
13485;SDS011;6815;59.336;17.998;2023-03-15T10:32:46;1.53;;;0.60;;
13485;SDS011;6815;59.336;17.998;2023-03-15T10:35:20;1.90;;;0.80;;
13485;SDS011;6815;59.336;17.998;2023-03-15T10:37:46;1.53;;;0.50;;
13485;SDS011;6815;59.336;17.998;2023-03-15T10:40:12;1.90;;;0.40;;
13485;SDS011;6815;59.336;17.998;2023-03-15T10:42:40;2.93;;;0.80;;
13485;SDS011;6815;59.336;17.998;2023-03-15T10:47:53;1.03;;;0.60;;
13485;SDS011;6815;59.336;17.998;2023-03-15T10:50:26;1.07;;;0.57;;
13485;SDS011;6815;59.336;17.998;2023-03-15T10:52:55;1.00;;;0.60;;
13485;SDS011;6815;59.336;17.998;2023-03-15T10:55:56;1.47;;;0.63;;
13485;SDS011;6815;59.336;17.998;2023-03-15T11:00:59;2.03;;;0.70;;
13485;SDS011;6815;59.336;17.998;2023-03-15T11:03:26;2.10;;;0.60;;
13485;SDS011;6815;59.336;17.998;2023-03-15T11:05:54;1.67;;;0.63;;
13485;SDS011;6815;59.336;17.998;2023-03-15T11:08:22;1.23;;;0.70;;
13485;SDS011;6815;59.336;17.998;2023-03-15T11:10:55;0.80;;;0.60;;
13485;SDS011;6815;59.336;17.998;2023-03-15T11:13:28;1.23;;;0.53;;
13485;SDS011;6815;59.336;17.998;2023-03-15T11:21:27;3.13;;;1.13;;
13485;SDS011;6815;59.336;17.998;2023-03-15T11:23:57;2.67;;;0.83;;
13485;SDS011;6815;59.336;17.998;2023-03-15T11:26:26;2.33;;;0.90;;
13485;SDS011;6815;59.336;17.998;2023-03-15T11:28:58;1.10;;;0.80;;
13485;SDS011;6815;59.336;17.998;2023-03-15T11:31:28;3.47;;;1.20;;
13485;SDS011;6815;59.336;17.998;2023-03-15T11:33:56;2.77;;;0.80;;
13485;SDS011;6815;59.336;17.998;2023-03-15T11:36:26;2.27;;;0.80;;
13485;SDS011;6815;59.336;17.998;2023-03-15T11:38:56;3.50;;;1.03;;
13485;SDS011;6815;59.336;17.998;2023-03-15T11:50:06;0.87;;;0.50;;
13485;SDS011;6815;59.336;17.998;2023-03-15T11:52:37;0.70;;;0.50;;
13485;SDS011;6815;59.336;17.998;2023-03-15T11:55:04;1.47;;;0.60;;
13485;SDS011;6815;59.336;17.998;2023-03-15T12:02:50;0.63;;;0.60;;
13485;SDS011;6815;59.336;17.998;2023-03-15T12:08:16;2.93;;;0.70;;
13485;SDS011;6815;59.336;17.998;2023-03-15T12:11:35;0.80;;;0.60;;
13485;SDS011;6815;59.336;17.998;2023-03-15T12:13:53;0.73;;;0.43;;
13485;SDS011;6815;59.336;17.998;2023-03-15T12:16:32;0.70;;;0.50;;
13485;SDS011;6815;59.336;17.998;2023-03-15T12:19:15;1.50;;;0.50;;
13485;SDS011;6815;59.336;17.998;2023-03-15T12:21:49;1.93;;;0.50;;
13485;SDS011;6815;59.336;17.998;2023-03-15T12:24:24;2.20;;;0.50;;
13485;SDS011;6815;59.336;17.998;2023-03-15T12:27:14;0.80;;;0.40;;
13485;SDS011;6815;59.336;17.998;2023-03-15T12:29:46;1.40;;;0.70;;
13485;SDS011;6815;59.336;17.998;2023-03-15T12:32:14;1.10;;;0.50;;
13485;SDS011;6815;59.336;17.998;2023-03-15T12:53:18;1.53;;;0.60;;
13485;SDS011;6815;59.336;17.998;2023-03-15T12:55:51;1.97;;;0.70;;
13485;SDS011;6815;59.336;17.998;2023-03-15T12:58:17;0.40;;;0.40;;
13485;SDS011;6815;59.336;17.998;2023-03-15T13:00:46;1.43;;;0.50;;
13485;SDS011;6815;59.336;17.998;2023-03-15T13:16:46;2.37;;;0.60;;
13485;SDS011;6815;59.336;17.998;2023-03-15T13:19:21;2.53;;;0.63;;
13485;SDS011;6815;59.336;17.998;2023-03-15T13:27:47;2.23;;;0.70;;
13485;SDS011;6815;59.336;17.998;2023-03-15T13:38:45;0.57;;;0.40;;
13485;SDS011;6815;59.336;17.998;2023-03-15T13:41:17;2.10;;;0.60;;
13485;SDS011;6815;59.336;17.998;2023-03-15T13:43:48;1.90;;;0.60;;
13485;SDS011;6815;59.336;17.998;2023-03-15T13:46:16;0.70;;;0.70;;
13485;SDS011;6815;59.336;17.998;2023-03-15T13:48:43;1.10;;;0.60;;
13485;SDS011;6815;59.336;17.998;2023-03-15T13:53:41;2.43;;;0.70;;
13485;SDS011;6815;59.336;17.998;2023-03-15T13:56:07;1.83;;;0.60;;
13485;SDS011;6815;59.336;17.998;2023-03-15T13:58:35;2.93;;;1.00;;
13485;SDS011;6815;59.336;17.998;2023-03-15T14:01:03;1.17;;;0.67;;
13485;SDS011;6815;59.336;17.998;2023-03-15T14:03:35;2.03;;;0.50;;
13485;SDS011;6815;59.336;17.998;2023-03-15T14:06:08;2.53;;;0.67;;
13485;SDS011;6815;59.336;17.998;2023-03-15T14:08:37;1.60;;;1.00;;
13485;SDS011;6815;59.336;17.998;2023-03-15T14:11:07;1.03;;;0.43;;
13485;SDS011;6815;59.336;17.998;2023-03-15T14:16:14;1.00;;;0.43;;
13485;SDS011;6815;59.336;17.998;2023-03-15T14:18:55;1.50;;;0.80;;
13485;SDS011;6815;59.336;17.998;2023-03-15T14:21:27;1.00;;;0.60;;
13485;SDS011;6815;59.336;17.998;2023-03-15T14:23:55;1.33;;;0.60;;
13485;SDS011;6815;59.336;17.998;2023-03-15T14:26:29;0.40;;;0.40;;
13485;SDS011;6815;59.336;17.998;2023-03-15T14:31:23;2.57;;;0.57;;
13485;SDS011;6815;59.336;17.998;2023-03-15T14:33:53;2.00;;;0.50;;
13485;SDS011;6815;59.336;17.998;2023-03-15T14:36:28;0.60;;;0.40;;
13485;SDS011;6815;59.336;17.998;2023-03-15T14:39:11;1.30;;;0.40;;
13485;SDS011;6815;59.336;17.998;2023-03-15T14:41:48;2.20;;;0.70;;
13485;SDS011;6815;59.336;17.998;2023-03-15T14:44:13;1.00;;;0.43;;
13485;SDS011;6815;59.336;17.998;2023-03-15T14:46:39;2.80;;;0.60;;
13485;SDS011;6815;59.336;17.998;2023-03-15T14:49:04;2.53;;;0.50;;
13485;SDS011;6815;59.336;17.998;2023-03-15T14:51:30;0.67;;;0.53;;
13485;SDS011;6815;59.336;17.998;2023-03-15T14:53:57;2.50;;;0.60;;
13485;SDS011;6815;59.336;17.998;2023-03-15T14:56:24;0.93;;;0.60;;
13485;SDS011;6815;59.336;17.998;2023-03-15T14:58:50;2.67;;;0.40;;
13485;SDS011;6815;59.336;17.998;2023-03-15T15:01:18;1.60;;;0.70;;
13485;SDS011;6815;59.336;17.998;2023-03-15T15:03:56;0.87;;;0.40;;
13485;SDS011;6815;59.336;17.998;2023-03-15T15:06:26;1.80;;;0.60;;
13485;SDS011;6815;59.336;17.998;2023-03-15T15:08:56;5.00;;;0.67;;
13485;SDS011;6815;59.336;17.998;2023-03-15T15:11:23;1.60;;;0.50;;
13485;SDS011;6815;59.336;17.998;2023-03-15T15:13:50;0.93;;;0.50;;
13485;SDS011;6815;59.336;17.998;2023-03-15T15:16:16;1.10;;;0.60;;
13485;SDS011;6815;59.336;17.998;2023-03-15T15:18:41;3.57;;;0.80;;
13485;SDS011;6815;59.336;17.998;2023-03-15T15:23:36;0.57;;;0.50;;
13485;SDS011;6815;59.336;17.998;2023-03-15T15:26:04;0.77;;;0.50;;
13485;SDS011;6815;59.336;17.998;2023-03-15T15:28:34;1.33;;;0.50;;
13485;SDS011;6815;59.336;17.998;2023-03-15T15:31:01;0.60;;;0.43;;
13485;SDS011;6815;59.336;17.998;2023-03-15T15:33:27;0.80;;;0.57;;
13485;SDS011;6815;59.336;17.998;2023-03-15T15:35:52;1.27;;;0.50;;
13485;SDS011;6815;59.336;17.998;2023-03-15T15:38:20;0.90;;;0.53;;
13485;SDS011;6815;59.336;17.998;2023-03-15T15:40:51;1.63;;;0.70;;
13485;SDS011;6815;59.336;17.998;2023-03-15T15:43:16;4.80;;;0.70;;
13485;SDS011;6815;59.336;17.998;2023-03-15T15:45:43;5.83;;;0.60;;
13485;SDS011;6815;59.336;17.998;2023-03-15T15:48:08;1.43;;;0.70;;
13485;SDS011;6815;59.336;17.998;2023-03-15T15:50:34;1.80;;;0.60;;
13485;SDS011;6815;59.336;17.998;2023-03-15T15:53:01;0.80;;;0.70;;
13485;SDS011;6815;59.336;17.998;2023-03-15T15:55:29;1.13;;;0.53;;
13485;SDS011;6815;59.336;17.998;2023-03-15T15:57:57;2.50;;;0.67;;
13485;SDS011;6815;59.336;17.998;2023-03-15T16:00:24;1.63;;;0.57;;
13485;SDS011;6815;59.336;17.998;2023-03-15T16:02:51;3.17;;;0.67;;
13485;SDS011;6815;59.336;17.998;2023-03-15T16:05:21;0.90;;;0.67;;
13485;SDS011;6815;59.336;17.998;2023-03-15T16:07:52;3.53;;;0.70;;
13485;SDS011;6815;59.336;17.998;2023-03-15T16:10:28;0.43;;;0.43;;
13485;SDS011;6815;59.336;17.998;2023-03-15T16:12:59;1.47;;;0.70;;
13485;SDS011;6815;59.336;17.998;2023-03-15T16:15:27;2.23;;;0.50;;
13485;SDS011;6815;59.336;17.998;2023-03-15T16:17:52;1.23;;;0.60;;
13485;SDS011;6815;59.336;17.998;2023-03-15T16:20:18;1.63;;;0.60;;
13485;SDS011;6815;59.336;17.998;2023-03-15T16:22:48;1.57;;;0.70;;
13485;SDS011;6815;59.336;17.998;2023-03-15T16:25:23;1.07;;;0.60;;
13485;SDS011;6815;59.336;17.998;2023-03-15T16:27:52;1.47;;;0.70;;
13485;SDS011;6815;59.336;17.998;2023-03-15T16:30:23;1.20;;;0.70;;
13485;SDS011;6815;59.336;17.998;2023-03-15T16:32:51;3.93;;;0.80;;
13485;SDS011;6815;59.336;17.998;2023-03-15T16:35:19;2.17;;;0.60;;
13485;SDS011;6815;59.336;17.998;2023-03-15T16:37:46;1.23;;;0.63;;
13485;SDS011;6815;59.336;17.998;2023-03-15T16:40:29;1.53;;;0.70;;
13485;SDS011;6815;59.336;17.998;2023-03-15T16:42:57;1.83;;;0.70;;
13485;SDS011;6815;59.336;17.998;2023-03-15T16:45:23;2.47;;;1.00;;